Time;durP1;ratioP1;P1;durP2;ratioP2;P2;SDS_P1;SDS_P2;PMS_P1;PMS_P2;Temp;Humidity;BMP_temperature;BMP_pressure;BME280_temperature;BME280_humidity;BME280_pressure;Samples;Min_cycle;Max_cycle;Signal;HPM_P1;HPM_P2
2022/10/26 00:01:34;;;;;;;3.33;2.10;;;16.70;70.00;;;;;;5080454;28;20049;-71
2022/10/26 00:04:00;;;;;;;3.03;2.10;;;16.70;70.00;;;;;;5070727;28;20052;-71
2022/10/26 00:06:28;;;;;;;2.92;2.10;;;16.70;70.00;;;;;;5072949;28;20417;-72
2022/10/26 00:08:55;;;;;;;2.63;2.13;;;16.70;70.00;;;;;;5074618;28;20104;-73
2022/10/26 00:11:24;;;;;;;2.58;1.95;;;16.70;70.10;;;;;;5082841;28;20051;-71
2022/10/26 00:13:50;;;;;;;2.75;2.00;;;16.70;70.00;;;;;;5094463;28;20052;-72
2022/10/26 00:16:18;;;;;;;2.90;2.00;;;16.70;70.00;;;;;;5094595;28;20067;-73
2022/10/26 00:18:45;;;;;;;2.88;1.90;;;16.70;70.00;;;;;;5094607;28;20078;-71
2022/10/26 00:21:12;;;;;;;2.55;1.80;;;16.70;70.00;;;;;;5087927;28;20056;-72
2022/10/26 00:23:39;;;;;;;2.15;1.70;;;16.60;69.90;;;;;;5074482;28;20401;-71
2022/10/26 00:26:05;;;;;;;4.75;1.98;;;16.70;70.00;;;;;;5075322;28;20048;-73
2022/10/26 00:28:34;;;;;;;2.42;2.00;;;16.70;69.90;;;;;;5074245;28;20056;-71
2022/10/26 00:31:01;;;;;;;2.45;1.92;;;16.60;69.90;;;;;;5079041;28;20054;-72
2022/10/26 00:33:28;;;;;;;2.10;1.80;;;16.60;69.90;;;;;;5094274;28;20044;-72
2022/10/26 00:35:55;;;;;;;2.80;1.83;;;16.70;69.90;;;;;;5095624;28;20044;-72
2022/10/26 00:38:22;;;;;;;3.47;2.30;;;16.60;69.90;;;;;;5095491;28;20052;-72
2022/10/26 00:40:49;;;;;;;2.35;1.90;;;16.60;69.90;;;;;;5091614;28;20044;-72
2022/10/26 00:43:16;;;;;;;2.40;1.90;;;16.60;69.90;;;;;;5074028;28;20055;-72
2022/10/26 00:45:45;;;;;;;3.13;1.70;;;16.60;69.80;;;;;;5075251;28;20048;-72
2022/10/26 00:48:15;;;;;;;2.60;1.90;;;16.60;69.80;;;;;;5074150;28;20056;-72
2022/10/26 00:50:43;;;;;;;2.30;1.90;;;16.60;69.80;;;;;;5074533;28;20052;-72
2022/10/26 00:53:09;;;;;;;3.08;2.00;;;16.60;69.80;;;;;;5095041;28;20044;-72
2022/10/26 00:55:38;;;;;;;2.58;2.03;;;16.60;69.80;;;;;;5094256;28;20412;-72
2022/10/26 00:58:06;;;;;;;2.65;1.80;;;16.60;69.80;;;;;;5094931;28;20139;-72
2022/10/26 01:00:32;;;;;;;2.67;1.88;;;16.60;69.80;;;;;;5093236;28;20507;-72
2022/10/26 01:03:03;;;;;;;2.08;1.70;;;16.60;69.80;;;;;;5073569;28;20045;-72
2022/10/26 01:05:30;;;;;;;2.85;2.10;;;16.60;69.80;;;;;;5074714;28;20051;-72
2022/10/26 01:07:56;;;;;;;2.17;1.77;;;16.60;69.80;;;;;;5073234;28;20072;-72
2022/10/26 01:10:23;;;;;;;2.30;2.00;;;16.60;69.80;;;;;;5089150;28;20054;-72
2022/10/26 01:12:50;;;;;;;2.38;1.83;;;16.60;69.80;;;;;;5092880;28;20052;-72
2022/10/26 01:15:17;;;;;;;2.20;1.73;;;16.60;69.70;;;;;;5094785;28;20051;-72
2022/10/26 01:17:54;;;;;;;2.20;1.73;;;16.60;69.70;;;;;;5092121;28;20062;-72
2022/10/26 01:20:46;;;;;;;2.30;1.98;;;16.60;69.70;;;;;;5093230;28;20058;-72
2022/10/26 01:23:16;;;;;;;3.10;2.10;;;16.60;69.70;;;;;;5055991;28;20079;-72
2022/10/26 01:26:20;;;;;;;2.70;2.00;;;16.50;69.70;;;;;;5074678;28;20070;-72
2022/10/26 01:29:05;;;;;;;2.17;1.80;;;16.60;69.60;;;;;;5037816;28;20060;-72
2022/10/26 01:31:34;;;;;;;2.90;2.05;;;16.50;70.20;;;;;;5076473;28;20127;-72
2022/10/26 01:34:02;;;;;;;2.40;1.98;;;16.50;69.70;;;;;;5072899;28;20048;-72
2022/10/26 01:36:31;;;;;;;2.88;1.95;;;16.50;69.70;;;;;;5073130;28;20060;-72
2022/10/26 01:39:00;;;;;;;2.22;1.92;;;16.50;69.90;;;;;;5073080;28;20066;-72
2022/10/26 01:41:28;;;;;;;3.13;2.20;;;16.50;69.60;;;;;;5072033;28;20054;-72
2022/10/26 01:43:56;;;;;;;2.60;2.20;;;16.50;69.60;;;;;;5074030;28;20049;-72
2022/10/26 01:46:23;;;;;;;2.33;1.80;;;16.50;69.60;;;;;;5074088;28;20051;-72
2022/10/26 01:48:52;;;;;;;2.50;1.85;;;16.50;69.60;;;;;;5072579;28;20053;-72
2022/10/26 01:51:18;;;;;;;5.95;2.15;;;16.50;69.50;;;;;;5072274;28;20131;-72
2022/10/26 01:53:45;;;;;;;2.30;2.00;;;16.50;69.50;;;;;;5072490;28;20055;-72
2022/10/26 01:56:18;;;;;;;2.63;1.85;;;16.50;69.60;;;;;;5072644;28;20059;-72
2022/10/26 01:59:01;;;;;;;2.40;2.00;;;16.50;69.60;;;;;;5085340;28;20055;-72
2022/10/26 02:01:43;;;;;;;2.50;2.05;;;16.50;69.50;;;;;;5093268;28;20571;-72
2022/10/26 02:04:17;;;;;;;2.20;1.80;;;16.50;69.50;;;;;;5093048;28;20108;-72
2022/10/26 02:06:48;;;;;;;3.42;2.00;;;16.50;69.50;;;;;;5092808;28;20052;-72
2022/10/26 02:09:18;;;;;;;2.33;2.00;;;16.50;69.50;;;;;;5076379;28;20056;-72
2022/10/26 02:11:46;;;;;;;3.70;2.10;;;16.50;69.50;;;;;;5072057;28;20061;-72
2022/10/26 02:14:16;;;;;;;6.40;2.47;;;16.50;69.50;;;;;;5073371;28;20048;-72
2022/10/26 02:16:48;;;;;;;2.45;2.17;;;16.50;69.50;;;;;;5072338;28;20060;-72
2022/10/26 02:19:21;;;;;;;2.30;2.00;;;16.50;69.50;;;;;;5087818;28;20508;-72
2022/10/26 02:21:50;;;;;;;2.30;1.98;;;16.50;69.50;;;;;;5092106;28;20403;-72
2022/10/26 02:24:16;;;;;;;2.90;2.05;;;16.50;69.40;;;;;;5092159;28;20054;-72
2022/10/26 02:26:45;;;;;;;2.25;1.88;;;16.50;69.40;;;;;;5092305;28;20054;-72
2022/10/26 02:29:13;;;;;;;3.55;2.17;;;16.40;69.40;;;;;;5076315;28;20062;-72
2022/10/26 02:31:40;;;;;;;4.10;2.28;;;16.50;69.40;;;;;;5071793;28;20058;-72
2022/10/26 02:34:29;;;;;;;2.38;2.05;;;16.40;69.30;;;;;;5073240;28;20125;-72
2022/10/26 02:37:03;;;;;;;2.70;2.10;;;16.40;69.40;;;;;;5073222;28;20131;-72
2022/10/26 02:39:31;;;;;;;2.95;2.40;;;16.40;69.30;;;;;;5088722;28;20058;-72
2022/10/26 02:42:01;;;;;;;2.65;2.20;;;16.40;69.40;;;;;;5091340;28;20043;-72
2022/10/26 02:44:30;;;;;;;3.65;2.30;;;16.40;69.30;;;;;;5092085;28;20131;-72
2022/10/26 02:46:56;;;;;;;3.70;2.30;;;16.40;69.30;;;;;;5091978;28;20459;-72
2022/10/26 02:49:23;;;;;;;3.83;2.40;;;16.40;69.30;;;;;;5074940;28;20054;-72
2022/10/26 02:51:56;;;;;;;3.47;2.20;;;16.40;69.30;;;;;;5071114;28;20059;-72
2022/10/26 02:54:26;;;;;;;3.58;2.33;;;16.40;69.30;;;;;;5071425;28;20052;-72
2022/10/26 02:56:55;;;;;;;3.38;2.20;;;16.40;69.30;;;;;;5070765;28;20059;-72
2022/10/26 02:59:33;;;;;;;3.45;2.50;;;16.40;69.20;;;;;;5089334;28;20055;-72
2022/10/26 03:02:00;;;;;;;3.00;2.28;;;16.40;69.30;;;;;;5091182;28;20074;-72
2022/10/26 03:04:31;;;;;;;2.50;2.30;;;16.40;69.30;;;;;;5091749;28;20056;-72
2022/10/26 03:06:59;;;;;;;3.33;2.53;;;16.40;69.20;;;;;;5091524;28;20497;-72
2022/10/26 03:09:25;;;;;;;2.55;2.22;;;16.40;69.20;;;;;;5075096;28;20520;-72
2022/10/26 03:11:52;;;;;;;2.70;2.40;;;16.40;69.20;;;;;;5070699;28;20063;-72
2022/10/26 03:14:19;;;;;;;3.15;2.33;;;16.40;69.20;;;;;;5072116;28;20082;-72
2022/10/26 03:16:46;;;;;;;2.83;2.30;;;16.40;69.20;;;;;;5072183;28;20048;-72
2022/10/26 03:19:12;;;;;;;3.05;2.55;;;16.30;69.10;;;;;;5085866;28;20127;-72
2022/10/26 03:21:41;;;;;;;2.53;2.10;;;16.40;69.20;;;;;;5091171;28;20474;-72
2022/10/26 03:24:09;;;;;;;2.97;2.50;;;16.40;69.20;;;;;;5091290;28;20060;-72
2022/10/26 03:26:35;;;;;;;2.75;2.33;;;16.40;69.20;;;;;;5092258;28;20051;-72
2022/10/26 03:29:02;;;;;;;3.10;2.28;;;16.30;71.50;;;;;;5078472;28;20559;-72
2022/10/26 03:31:29;;;;;;;4.40;2.55;;;16.30;69.10;;;;;;5071643;28;20406;-72
2022/10/26 03:33:56;;;;;;;3.20;2.38;;;16.30;69.10;;;;;;5072115;28;20048;-72
2022/10/26 03:36:22;;;;;;;3.80;2.67;;;16.30;69.10;;;;;;5071998;28;20058;-72
2022/10/26 03:38:49;;;;;;;2.67;2.42;;;16.30;69.10;;;;;;5081069;28;20047;-72
2022/10/26 03:41:17;;;;;;;3.58;2.22;;;16.30;69.10;;;;;;5089939;28;20412;-72
2022/10/26 03:43:44;;;;;;;2.80;2.35;;;16.30;69.10;;;;;;5090615;28;20048;-72
2022/10/26 03:46:11;;;;;;;2.90;2.50;;;16.30;69.10;;;;;;5090926;28;20056;-72
2022/10/26 03:48:37;;;;;;;3.00;2.50;;;16.30;69.10;;;;;;5082255;28;20409;-72
2022/10/26 03:51:04;;;;;;;3.22;2.42;;;16.30;69.10;;;;;;5070264;28;20140;-72
2022/10/26 03:53:31;;;;;;;4.22;2.45;;;16.30;69.10;;;;;;5070620;28;20048;-72
2022/10/26 03:55:58;;;;;;;3.05;2.70;;;16.30;69.10;;;;;;5071433;28;20048;-72
2022/10/26 03:58:26;;;;;;;3.90;2.70;;;16.30;69.10;;;;;;5076672;28;20052;-72
2022/10/26 04:00:52;;;;;;;5.43;3.35;;;16.30;69.10;;;;;;5090701;28;20056;-72
2022/10/26 04:03:19;;;;;;;3.65;2.85;;;16.30;69.10;;;;;;5090651;28;20420;-72
2022/10/26 04:05:46;;;;;;;3.35;2.40;;;16.30;69.10;;;;;;5090252;28;20066;-72
2022/10/26 04:08:12;;;;;;;3.70;2.50;;;16.30;69.10;;;;;;5087014;28;20054;-72
2022/10/26 04:10:39;;;;;;;3.30;2.40;;;16.30;69.10;;;;;;5070214;28;20058;-72
2022/10/26 04:13:06;;;;;;;3.17;2.38;;;16.30;69.10;;;;;;5071195;28;20440;-72
2022/10/26 04:15:34;;;;;;;3.00;2.40;;;16.20;69.10;;;;;;5070080;28;20059;-72
2022/10/26 04:18:01;;;;;;;3.05;2.40;;;16.20;69.10;;;;;;5073070;28;20051;-72
2022/10/26 04:20:28;;;;;;;3.85;2.60;;;16.20;69.10;;;;;;5090226;28;20055;-72
2022/10/26 04:22:59;;;;;;;2.75;2.15;;;16.20;69.10;;;;;;5091366;28;20054;-72
2022/10/26 04:25:26;;;;;;;3.00;2.60;;;16.20;69.10;;;;;;5090236;28;20052;-72
2022/10/26 04:27:53;;;;;;;3.42;2.42;;;16.20;69.10;;;;;;5088568;28;20404;-72
2022/10/26 04:30:19;;;;;;;3.40;2.70;;;16.20;69.10;;;;;;5070272;28;20060;-72
2022/10/26 04:32:47;;;;;;;3.65;2.25;;;15.60;71.10;;;;;;5070153;28;20057;-72
2022/10/26 04:35:14;;;;;;;2.72;2.22;;;16.20;69.10;;;;;;5070168;28;20456;-72
2022/10/26 04:37:41;;;;;;;2.67;2.40;;;16.20;69.10;;;;;;5070493;28;20149;-72
2022/10/26 04:40:08;;;;;;;3.03;2.30;;;16.20;69.10;;;;;;5089218;28;20392;-72
2022/10/26 04:42:41;;;;;;;3.17;2.60;;;16.20;69.10;;;;;;5090009;28;20052;-72
2022/10/26 04:45:08;;;;;;;3.47;2.65;;;16.20;69.00;;;;;;5090563;28;20048;-72
2022/10/26 04:47:35;;;;;;;3.08;2.50;;;16.20;69.10;;;;;;5091212;28;20067;-72
2022/10/26 04:50:04;;;;;;;3.35;2.67;;;16.20;69.10;;;;;;5084351;28;20048;-72
2022/10/26 04:52:30;;;;;;;3.25;2.50;;;16.20;69.00;;;;;;5072551;28;20056;-71
2022/10/26 04:54:57;;;;;;;2.42;2.00;;;16.20;69.00;;;;;;5075548;28;20055;-71
2022/10/26 04:57:24;;;;;;;3.22;2.30;;;16.20;69.10;;;;;;5093058;28;20052;-72
2022/10/26 04:59:51;;;;;;;2.95;2.40;;;16.20;69.10;;;;;;5094515;28;20048;-72
2022/10/26 05:02:19;;;;;;;3.85;2.47;;;16.20;69.10;;;;;;5094080;28;20052;-72
2022/10/26 05:04:46;;;;;;;3.22;2.53;;;16.20;69.60;;;;;;5093764;28;20115;-72
2022/10/26 05:07:14;;;;;;;2.70;2.35;;;16.20;69.10;;;;;;5095242;28;20054;-72
2022/10/26 05:09:41;;;;;;;2.83;2.50;;;16.20;69.10;;;;;;5079186;28;20048;-72
2022/10/26 05:12:08;;;;;;;2.50;2.30;;;16.20;69.00;;;;;;5073334;28;20060;-72
2022/10/26 05:14:34;;;;;;;3.08;2.38;;;16.10;69.00;;;;;;5073664;28;20429;-72
2022/10/26 05:17:01;;;;;;;3.22;2.60;;;16.10;69.00;;;;;;5073146;28;20059;-72
2022/10/26 05:19:28;;;;;;;3.95;2.30;;;16.10;69.00;;;;;;5087038;28;20059;-72
2022/10/26 05:21:55;;;;;;;2.47;2.10;;;16.10;69.00;;;;;;5094617;28;20052;-72
2022/10/26 05:24:23;;;;;;;2.90;2.60;;;16.10;69.00;;;;;;5093357;28;20054;-72
2022/10/26 05:26:49;;;;;;;2.88;2.33;;;16.10;69.00;;;;;;5094702;28;20428;-72
2022/10/26 05:29:16;;;;;;;2.72;2.20;;;16.10;69.00;;;;;;5081351;28;20052;-71
2022/10/26 05:31:43;;;;;;;4.25;2.63;;;16.10;69.00;;;;;;5074182;28;20055;-72
2022/10/26 05:34:09;;;;;;;3.28;2.60;;;16.10;69.00;;;;;;5073039;28;20055;-72
2022/10/26 05:36:36;;;;;;;2.72;2.35;;;16.10;69.00;;;;;;5074753;28;20603;-72
2022/10/26 05:39:03;;;;;;;2.78;2.35;;;16.10;69.00;;;;;;5082389;28;20062;-72
2022/10/26 05:41:31;;;;;;;2.88;2.58;;;16.10;69.00;;;;;;5092802;28;20055;-71
2022/10/26 05:43:58;;;;;;;3.15;2.40;;;16.10;69.00;;;;;;5092732;28;20054;-70
2022/10/26 05:46:24;;;;;;;5.10;2.45;;;16.10;69.00;;;;;;5091713;28;20058;-72
2022/10/26 05:48:51;;;;;;;3.47;2.45;;;16.10;69.00;;;;;;5082917;28;20062;-71
2022/10/26 05:51:18;;;;;;;2.70;2.08;;;16.10;69.00;;;;;;5071844;28;20136;-72
2022/10/26 05:53:45;;;;;;;3.60;2.72;;;16.10;69.00;;;;;;5072864;28;20049;-71
2022/10/26 05:56:16;;;;;;;2.97;2.30;;;16.10;69.00;;;;;;5071976;28;20057;-72
2022/10/26 05:58:45;;;;;;;3.78;2.55;;;16.10;69.00;;;;;;5078946;28;20062;-71
2022/10/26 06:01:16;;;;;;;2.45;2.15;;;16.10;69.00;;;;;;5093878;28;20048;-72
2022/10/26 06:03:50;;;;;;;2.55;2.33;;;16.10;69.00;;;;;;5092142;28;20131;-72
2022/10/26 06:06:18;;;;;;;3.40;2.30;;;16.10;69.00;;;;;;5092830;28;20062;-72
2022/10/26 06:08:45;;;;;;;2.80;2.33;;;16.00;69.00;;;;;;5087136;28;20048;-72
2022/10/26 06:11:12;;;;;;;3.47;2.40;;;16.10;69.00;;;;;;5072936;28;20408;-72
2022/10/26 06:13:39;;;;;;;2.50;2.17;;;16.10;69.00;;;;;;5073479;28;20070;-72
2022/10/26 06:16:20;;;;;;;3.08;2.38;;;16.00;69.00;;;;;;5071983;28;20051;-72
2022/10/26 06:18:50;;;;;;;2.80;2.13;;;16.00;69.00;;;;;;5080099;28;20408;-72
2022/10/26 06:21:26;;;;;;;2.47;2.08;;;16.00;69.10;;;;;;5091713;28;20051;-71
2022/10/26 06:23:55;;;;;;;3.45;2.45;;;16.00;69.00;;;;;;5092624;28;20048;-72
2022/10/26 06:26:29;;;;;;;2.28;1.92;;;16.00;69.10;;;;;;5093794;28;20047;-72
2022/10/26 06:28:59;;;;;;;3.38;2.42;;;16.00;69.10;;;;;;5085438;28;20044;-72
2022/10/26 06:31:28;;;;;;;2.97;2.30;;;16.00;69.10;;;;;;5072905;28;20048;-72
2022/10/26 06:33:57;;;;;;;2.42;2.05;;;16.00;69.10;;;;;;5071916;28;20056;-72
2022/10/26 06:36:25;;;;;;;2.90;2.20;;;16.00;69.10;;;;;;5071880;28;20082;-72
2022/10/26 06:38:54;;;;;;;3.65;2.20;;;16.00;69.10;;;;;;5078071;28;20051;-72
2022/10/26 06:41:21;;;;;;;3.10;2.20;;;16.00;69.10;;;;;;5093147;28;20052;-72
2022/10/26 06:43:48;;;;;;;2.80;2.13;;;16.00;69.10;;;;;;5091601;28;20062;-72
2022/10/26 06:46:20;;;;;;;2.50;2.28;;;16.00;69.10;;;;;;5086944;28;20050;-72
2022/10/26 06:48:51;;;;;;;3.83;2.20;;;16.00;69.10;;;;;;5084318;28;20047;-72
2022/10/26 06:51:18;;;;;;;3.67;2.15;;;16.00;69.20;;;;;;5088685;28;20055;-72
2022/10/26 06:53:49;;;;;;;3.15;1.95;;;16.00;69.20;;;;;;5106473;28;20127;-72
2022/10/26 06:56:16;;;;;;;2.30;1.80;;;16.00;69.20;;;;;;5084862;28;20503;-72
2022/10/26 06:58:43;;;;;;;2.03;1.80;;;16.00;69.20;;;;;;5080953;28;20052;-72
2022/10/26 07:01:10;;;;;;;2.22;2.03;;;16.00;69.20;;;;;;5091227;28;20411;-72
2022/10/26 07:03:37;;;;;;;2.15;1.85;;;16.00;69.20;;;;;;5092934;28;20370;-72
2022/10/26 07:06:05;;;;;;;2.40;1.90;;;16.10;69.20;;;;;;5087982;28;20049;-73
2022/10/26 07:08:32;;;;;;;2.85;1.80;;;16.10;69.20;;;;;;5079885;28;20052;-72
2022/10/26 07:10:59;;;;;;;2.17;1.83;;;16.10;69.10;;;;;;5074691;28;20397;-71
2022/10/26 07:13:38;;;;;;;1.70;1.60;;;16.10;69.00;;;;;;5080741;28;20048;-72
2022/10/26 07:16:06;;;;;;;2.28;1.83;;;16.20;69.50;;;;;;5087801;28;20054;-73
2022/10/26 07:18:32;;;;;;;2.88;1.75;;;16.20;69.10;;;;;;5091422;28;20111;-73
2022/10/26 07:20:59;;;;;;;2.20;1.70;;;16.20;69.00;;;;;;5092298;28;20054;-73
2022/10/26 07:23:27;;;;;;;2.45;1.75;;;16.30;69.00;;;;;;5091413;28;20056;-73
2022/10/26 07:25:54;;;;;;;1.85;1.60;;;16.30;68.90;;;;;;5092455;28;20043;-72
2022/10/26 07:28:20;;;;;;;4.20;1.98;;;16.30;68.80;;;;;;5076771;28;20060;-71
2022/10/26 07:30:47;;;;;;;1.90;1.65;;;16.40;68.80;;;;;;5071068;28;20057;-71
2022/10/26 07:33:14;;;;;;;2.03;1.73;;;16.40;68.80;;;;;;5071135;28;20599;-73
2022/10/26 07:35:41;;;;;;;2.45;1.75;;;16.40;68.70;;;;;;5073786;28;20048;-71
2022/10/26 07:38:07;;;;;;;1.95;1.63;;;16.50;68.70;;;;;;5079981;28;20056;-73
2022/10/26 07:40:36;;;;;;;3.60;1.50;;;16.50;68.70;;;;;;5084893;28;20044;-73
2022/10/26 07:43:02;;;;;;;1.60;1.48;;;16.50;68.70;;;;;;5092140;28;20117;-72
2022/10/26 07:45:29;;;;;;;2.10;1.45;;;16.50;68.60;;;;;;5090960;28;20050;-72
2022/10/26 07:47:56;;;;;;;2.17;1.70;;;16.60;68.60;;;;;;5080325;28;20048;-72
2022/10/26 07:50:23;;;;;;;3.22;1.50;;;16.60;68.50;;;;;;5078248;28;20044;-73
2022/10/26 07:52:50;;;;;;;4.43;1.73;;;16.60;68.50;;;;;;5072079;28;20131;-73
2022/10/26 07:55:16;;;;;;;2.50;1.65;;;16.60;68.40;;;;;;5071899;28;20053;-72
2022/10/26 07:57:44;;;;;;;1.88;1.50;;;16.70;68.40;;;;;;5080741;28;20382;-72
2022/10/26 08:00:12;;;;;;;1.92;1.60;;;16.70;68.40;;;;;;5090616;28;20048;-71
2022/10/26 08:02:39;;;;;;;1.65;1.48;;;16.80;68.40;;;;;;5090657;28;20052;-71
2022/10/26 08:05:06;;;;;;;3.60;1.60;;;16.80;68.40;;;;;;5091121;28;20054;-72
2022/10/26 08:07:33;;;;;;;2.45;1.60;;;16.80;68.40;;;;;;5083711;28;20048;-72
2022/10/26 08:10:00;;;;;;;2.85;1.58;;;16.80;68.30;;;;;;5071569;28;20464;-72
2022/10/26 08:12:27;;;;;;;2.58;1.90;;;16.90;68.30;;;;;;5081643;28;20056;-72
2022/10/26 08:14:55;;;;;;;1.90;1.50;;;16.80;68.10;;;;;;5090260;28;20382;-71
2022/10/26 08:17:21;;;;;;;4.80;1.90;;;16.90;68.30;;;;;;5090893;28;20051;-72
2022/10/26 08:19:49;;;;;;;3.05;1.75;;;16.90;68.60;;;;;;5090872;28;20051;-73
2022/10/26 08:22:15;;;;;;;2.97;1.90;;;16.90;68.60;;;;;;5091403;28;20401;-73
2022/10/26 08:24:43;;;;;;;4.13;1.90;;;16.90;68.50;;;;;;5090026;28;20052;-72
2022/10/26 08:27:09;;;;;;;3.55;1.60;;;17.00;68.40;;;;;;5093100;28;20056;-71
2022/10/26 08:29:36;;;;;;;2.20;1.60;;;17.00;68.40;;;;;;5095715;28;20054;-71
2022/10/26 08:32:05;;;;;;;1.88;1.40;;;17.00;68.30;;;;;;5095571;28;20500;-73
2022/10/26 08:34:31;;;;;;;2.55;1.52;;;17.00;68.20;;;;;;5086006;28;20158;-72
2022/10/26 08:36:58;;;;;;;1.80;1.55;;;17.00;68.20;;;;;;5075409;28;20044;-73
2022/10/26 08:39:27;;;;;;;2.35;1.50;;;17.00;68.20;;;;;;5075504;28;20048;-73
2022/10/26 08:41:56;;;;;;;2.05;1.73;;;17.00;68.10;;;;;;5074841;28;20049;-72
2022/10/26 08:44:24;;;;;;;1.70;1.45;;;17.10;68.10;;;;;;5080299;28;20051;-72
2022/10/26 08:46:53;;;;;;;1.75;1.50;;;17.10;68.10;;;;;;5094239;28;20421;-73
2022/10/26 08:49:23;;;;;;;3.33;1.45;;;17.10;68.60;;;;;;5095600;28;20052;-73
2022/10/26 08:51:50;;;;;;;2.63;1.45;;;17.10;68.00;;;;;;5094182;28;20048;-73
2022/10/26 08:54:18;;;;;;;2.13;1.48;;;17.10;68.00;;;;;;5092476;28;20058;-72
2022/10/26 08:56:46;;;;;;;1.90;1.40;;;17.10;68.00;;;;;;5093856;28;20044;-72
2022/10/26 08:59:16;;;;;;;1.95;1.40;;;17.20;68.00;;;;;;5090939;28;20051;-70
2022/10/26 09:01:43;;;;;;;2.58;1.52;;;17.10;67.90;;;;;;5087952;28;20050;-72
2022/10/26 09:04:11;;;;;;;1.83;1.38;;;17.10;67.90;;;;;;5091908;28;20058;-71
2022/10/26 09:06:43;;;;;;;1.92;1.38;;;17.20;67.90;;;;;;5095345;28;20054;-71
2022/10/26 09:09:11;;;;;;;2.97;1.33;;;17.20;67.90;;;;;;5077177;28;20048;-71
2022/10/26 09:11:45;;;;;;;2.67;1.38;;;17.20;67.90;;;;;;5084697;28;20127;-72
2022/10/26 09:14:15;;;;;;;1.50;1.30;;;17.20;67.90;;;;;;5078686;28;20136;-71
2022/10/26 09:16:45;;;;;;;2.20;1.30;;;17.20;67.80;;;;;;5078111;28;20040;-71
2022/10/26 09:19:31;;;;;;;1.92;1.40;;;17.20;67.80;;;;;;5087588;28;20055;-71
2022/10/26 09:22:01;;;;;;;2.38;1.42;;;17.30;67.80;;;;;;5090524;28;20420;-71
2022/10/26 09:24:30;;;;;;;1.45;1.20;;;17.30;67.90;;;;;;5082260;28;20485;-71
2022/10/26 09:27:00;;;;;;;1.38;1.27;;;17.30;67.90;;;;;;5081166;28;20387;-72
2022/10/26 09:29:28;;;;;;;2.25;1.20;;;17.30;67.80;;;;;;5074777;28;20078;-73
2022/10/26 09:31:55;;;;;;;1.80;1.20;;;17.30;67.80;;;;;;5073909;28;20052;-71
2022/10/26 09:34:26;;;;;;;1.38;1.13;;;17.30;67.80;;;;;;5075560;28;20048;-71
2022/10/26 09:36:54;;;;;;;1.38;1.20;;;17.30;67.80;;;;;;5082527;28;20497;-72
2022/10/26 09:39:26;;;;;;;1.33;1.23;;;17.30;67.80;;;;;;5074024;28;20051;-72
2022/10/26 09:41:55;;;;;;;2.05;1.40;;;17.30;67.70;;;;;;5081910;28;20437;-72
2022/10/26 09:44:25;;;;;;;1.88;1.30;;;17.30;67.70;;;;;;5083656;28;20050;-71
2022/10/26 09:46:55;;;;;;;1.60;1.33;;;17.30;67.80;;;;;;5084074;28;20106;-71
2022/10/26 09:49:25;;;;;;;1.52;1.20;;;17.30;67.90;;;;;;5083153;28;20048;-71
2022/10/26 09:51:52;;;;;;;3.00;1.40;;;17.30;68.00;;;;;;5082577;28;20053;-72
2022/10/26 09:54:19;;;;;;;2.00;1.30;;;17.30;68.00;;;;;;5081273;28;20501;-72
2022/10/26 09:56:49;;;;;;;4.57;1.40;;;17.30;68.00;;;;;;5093765;28;20051;-72
2022/10/26 09:59:16;;;;;;;11.35;2.30;;;17.30;68.10;;;;;;5092519;28;20052;-71
2022/10/26 10:01:43;;;;;;;8.25;2.10;;;17.30;68.30;;;;;;5098459;28;20048;-72
2022/10/26 10:04:16;;;;;;;6.45;1.92;;;17.30;68.40;;;;;;5091472;28;20066;-72
2022/10/26 10:06:43;;;;;;;3.75;1.70;;;17.30;68.40;;;;;;5091696;28;20485;-72
2022/10/26 10:09:11;;;;;;;4.38;1.98;;;17.30;68.50;;;;;;5091115;28;20078;-72
2022/10/26 10:11:39;;;;;;;5.72;2.45;;;15.50;67.70;;;;;;5091373;28;20056;-73
2022/10/26 10:14:08;;;;;;;3.28;1.75;;;17.40;68.80;;;;;;5091890;28;20052;-72
2022/10/26 10:16:35;;;;;;;2.55;1.67;;;17.40;68.90;;;;;;5091971;28;20412;-73
2022/10/26 10:19:01;;;;;;;7.78;1.88;;;17.30;69.00;;;;;;5092957;28;20048;-72
2022/10/26 10:21:34;;;;;;;7.93;2.03;;;17.30;69.00;;;;;;5092344;28;20060;-72
2022/10/26 10:24:01;;;;;;;4.78;1.80;;;17.30;69.00;;;;;;5092411;28;20059;-72
2022/10/26 10:26:28;;;;;;;8.57;1.85;;;17.30;69.00;;;;;;5092698;28;20058;-71
2022/10/26 10:28:58;;;;;;;4.60;1.80;;;17.30;69.00;;;;;;5091822;28;20556;-72
2022/10/26 10:31:29;;;;;;;3.60;1.90;;;17.30;69.00;;;;;;5073004;28;20533;-72
2022/10/26 10:33:56;;;;;;;4.20;1.65;;;17.30;69.00;;;;;;5073250;28;20054;-72
2022/10/26 10:36:23;;;;;;;3.67;1.50;;;17.30;69.00;;;;;;5071993;28;20501;-72
2022/10/26 10:38:51;;;;;;;3.22;1.52;;;17.30;69.20;;;;;;5073494;28;20135;-72
2022/10/26 10:41:20;;;;;;;2.72;1.70;;;17.20;69.00;;;;;;5073105;28;20390;-72
2022/10/26 10:43:48;;;;;;;2.38;1.55;;;17.30;69.30;;;;;;5071944;28;20061;-72
2022/10/26 10:46:18;;;;;;;3.15;1.48;;;17.30;69.40;;;;;;5071494;28;20132;-72
2022/10/26 10:48:48;;;;;;;3.30;1.70;;;17.30;69.50;;;;;;5071455;28;20057;-72
2022/10/26 10:51:19;;;;;;;6.97;1.70;;;17.30;69.60;;;;;;5087976;28;20147;-72
2022/10/26 10:53:47;;;;;;;2.85;1.50;;;17.30;69.60;;;;;;5071458;28;20135;-72
2022/10/26 10:56:28;;;;;;;2.97;1.33;;;17.30;69.70;;;;;;5071492;28;20044;-73
2022/10/26 10:59:01;;;;;;;2.40;1.50;;;17.40;69.70;;;;;;5072957;28;20051;-72
2022/10/26 11:01:30;;;;;;;3.17;1.48;;;17.40;69.80;;;;;;5091758;28;20472;-73
2022/10/26 11:04:07;;;;;;;3.47;1.40;;;17.40;69.70;;;;;;5091980;28;20404;-72
2022/10/26 11:06:34;;;;;;;2.78;1.50;;;17.40;69.60;;;;;;5092990;28;20062;-71
2022/10/26 11:09:02;;;;;;;5.72;1.63;;;17.40;69.70;;;;;;5090071;28;20066;-72
2022/10/26 11:11:32;;;;;;;3.67;1.40;;;17.40;69.70;;;;;;5073172;28;20059;-72
2022/10/26 11:14:01;;;;;;;4.35;1.60;;;17.50;69.60;;;;;;5071344;28;20061;-72
2022/10/26 11:16:30;;;;;;;2.88;1.58;;;17.50;69.60;;;;;;5071175;28;20506;-72
2022/10/26 11:18:58;;;;;;;1.60;1.38;;;17.50;69.50;;;;;;5072378;28;20056;-72
2022/10/26 11:21:28;;;;;;;2.70;1.27;;;17.50;69.40;;;;;;5092307;28;20416;-72
2022/10/26 11:24:01;;;;;;;3.90;2.03;;;17.50;69.30;;;;;;5091331;28;20056;-72
2022/10/26 11:26:30;;;;;;;2.05;1.30;;;17.50;69.30;;;;;;5087605;28;20048;-72
2022/10/26 11:28:58;;;;;;;2.38;1.30;;;17.60;69.40;;;;;;5071113;28;20056;-71
2022/10/26 11:31:27;;;;;;;2.30;1.27;;;17.60;69.40;;;;;;5070534;28;20063;-72
2022/10/26 11:34:04;;;;;;;4.55;1.60;;;17.60;69.40;;;;;;5071213;28;20056;-72
2022/10/26 11:36:32;;;;;;;1.95;1.30;;;17.60;69.40;;;;;;5074414;28;20048;-72
2022/10/26 11:39:01;;;;;;;1.85;1.25;;;17.60;70.00;;;;;;5091228;28;20067;-72
2022/10/26 11:41:31;;;;;;;2.70;1.40;;;17.60;69.50;;;;;;5090600;28;20052;-72
2022/10/26 11:44:01;;;;;;;4.22;1.38;;;17.60;69.60;;;;;;5090971;28;20048;-71
2022/10/26 11:46:30;;;;;;;2.28;1.40;;;17.60;69.60;;;;;;5088035;28;20052;-72
2022/10/26 11:48:58;;;;;;;3.53;1.35;;;17.60;69.70;;;;;;5072209;28;20048;-72
2022/10/26 11:51:38;;;;;;;4.13;1.40;;;17.60;69.70;;;;;;5072583;28;20052;-72
2022/10/26 11:54:08;;;;;;;3.22;1.30;;;17.60;69.70;;;;;;5072184;28;20078;-71
2022/10/26 11:56:38;;;;;;;1.67;1.23;;;17.60;69.80;;;;;;5075482;28;20048;-72
2022/10/26 11:59:05;;;;;;;2.42;1.52;;;17.60;69.80;;;;;;5091461;28;20062;-72
2022/10/26 12:01:32;;;;;;;3.58;1.30;;;17.60;69.80;;;;;;5091200;28;20058;-72
2022/10/26 12:03:58;;;;;;;2.67;1.40;;;17.60;69.70;;;;;;5091496;28;20054;-72
2022/10/26 12:06:25;;;;;;;2.22;1.50;;;17.60;69.70;;;;;;5088782;28;20078;-70
2022/10/26 12:08:56;;;;;;;2.85;1.20;;;17.60;69.80;;;;;;5078620;28;20060;-70
2022/10/26 12:11:31;;;;;;;3.72;1.30;;;17.60;69.80;;;;;;5079429;28;20058;-70
2022/10/26 12:13:59;;;;;;;4.22;1.25;;;17.60;69.80;;;;;;5080457;28;20055;-70
2022/10/26 12:16:40;;;;;;;2.53;1.40;;;17.60;69.80;;;;;;5079546;28;20040;-70
2022/10/26 12:19:11;;;;;;;3.67;1.70;;;17.60;69.80;;;;;;5081510;28;20485;-70
2022/10/26 12:21:38;;;;;;;4.40;1.58;;;17.60;70.00;;;;;;5082334;28;20535;-71
2022/10/26 12:24:26;;;;;;;1.90;1.27;;;17.50;69.90;;;;;;5080940;28;20055;-71
2022/10/26 12:26:54;;;;;;;3.05;1.52;;;17.60;69.90;;;;;;5078239;28;20082;-71
2022/10/26 12:29:34;;;;;;;3.58;1.40;;;17.60;70.10;;;;;;5086742;28;20152;-71
2022/10/26 12:32:01;;;;;;;2.08;1.33;;;17.50;70.10;;;;;;5063004;28;20053;-70
2022/10/26 12:35:01;;;;;;;2.33;1.25;;;17.50;70.20;;;;;;5081058;28;20067;-71
2022/10/26 12:37:39;;;;;;;2.85;1.40;;;17.50;70.10;;;;;;5078139;28;20037;-70
2022/10/26 12:40:39;;;;;;;2.88;1.40;;;17.50;70.20;;;;;;5069806;28;20564;-70
2022/10/26 12:43:34;;;;;;;3.40;1.45;;;17.50;70.00;;;;;;5080759;28;20044;-70
2022/10/26 12:46:42;;;;;;;4.47;1.55;;;17.50;70.10;;;;;;5070600;28;20048;-70
2022/10/26 12:49:57;;;;;;;2.13;1.50;;;17.40;70.10;;;;;;5070877;28;20072;-71
2022/10/26 12:52:40;;;;;;;2.67;1.50;;;17.50;70.20;;;;;;5076199;28;20044;-71
2022/10/26 12:55:43;;;;;;;3.17;1.65;;;17.40;70.30;;;;;;5080965;28;20040;-71
2022/10/26 12:58:38;;;;;;;3.30;1.52;;;17.40;70.20;;;;;;5078863;28;20486;-70
2022/10/26 13:01:29;;;;;;;2.65;1.60;;;17.40;70.20;;;;;;5079405;28;20057;-70